sensor_id;sensor_type;location;lat;lon;timestamp;temperature;humidity
64685;DHT22;51109;47.414;18.954;2023-04-06T00:02:13;1.20;99.90
64685;DHT22;51109;47.414;18.954;2023-04-06T00:04:39;1.10;99.90
64685;DHT22;51109;47.414;18.954;2023-04-06T00:07:05;1.20;99.90
64685;DHT22;51109;47.414;18.954;2023-04-06T00:09:32;1.30;99.90
64685;DHT22;51109;47.414;18.954;2023-04-06T00:11:58;1.30;99.90
64685;DHT22;51109;47.414;18.954;2023-04-06T00:14:24;1.30;99.90
64685;DHT22;51109;47.414;18.954;2023-04-06T00:16:50;1.30;99.90
64685;DHT22;51109;47.414;18.954;2023-04-06T00:19:16;1.20;99.90
64685;DHT22;51109;47.414;18.954;2023-04-06T00:21:42;1.00;99.90
64685;DHT22;51109;47.414;18.954;2023-04-06T00:24:08;0.90;99.90
64685;DHT22;51109;47.414;18.954;2023-04-06T00:26:34;0.80;99.90
64685;DHT22;51109;47.414;18.954;2023-04-06T00:29:00;0.90;99.90
64685;DHT22;51109;47.414;18.954;2023-04-06T00:31:25;0.80;99.90
64685;DHT22;51109;47.414;18.954;2023-04-06T00:33:51;0.90;99.90
64685;DHT22;51109;47.414;18.954;2023-04-06T00:36:17;0.90;99.90
64685;DHT22;51109;47.414;18.954;2023-04-06T00:38:43;0.80;99.90
64685;DHT22;51109;47.414;18.954;2023-04-06T00:41:10;0.70;99.90
64685;DHT22;51109;47.414;18.954;2023-04-06T00:43:36;0.60;99.90
64685;DHT22;51109;47.414;18.954;2023-04-06T00:46:01;0.60;99.90
64685;DHT22;51109;47.414;18.954;2023-04-06T00:48:27;0.70;99.90
64685;DHT22;51109;47.414;18.954;2023-04-06T00:50:55;0.60;99.90
64685;DHT22;51109;47.414;18.954;2023-04-06T00:53:21;0.70;99.90
64685;DHT22;51109;47.414;18.954;2023-04-06T00:55:47;0.70;99.90
64685;DHT22;51109;47.414;18.954;2023-04-06T00:58:13;0.70;99.90
64685;DHT22;51109;47.414;18.954;2023-04-06T01:00:39;0.80;99.90
64685;DHT22;51109;47.414;18.954;2023-04-06T01:03:06;0.80;99.90
64685;DHT22;51109;47.414;18.954;2023-04-06T01:05:35;0.80;99.90
64685;DHT22;51109;47.414;18.954;2023-04-06T01:08:06;0.70;99.90
64685;DHT22;51109;47.414;18.954;2023-04-06T01:10:33;0.60;99.90
64685;DHT22;51109;47.414;18.954;2023-04-06T01:12:59;0.50;99.90
64685;DHT22;51109;47.414;18.954;2023-04-06T01:15:26;0.40;99.90
64685;DHT22;51109;47.414;18.954;2023-04-06T01:17:52;0.40;99.90
64685;DHT22;51109;47.414;18.954;2023-04-06T01:20:18;0.50;99.90
64685;DHT22;51109;47.414;18.954;2023-04-06T01:22:44;0.50;99.90
64685;DHT22;51109;47.414;18.954;2023-04-06T01:25:10;0.50;99.90
64685;DHT22;51109;47.414;18.954;2023-04-06T01:27:36;0.50;99.90
64685;DHT22;51109;47.414;18.954;2023-04-06T01:30:02;0.50;99.90
64685;DHT22;51109;47.414;18.954;2023-04-06T01:32:31;0.50;99.90
64685;DHT22;51109;47.414;18.954;2023-04-06T01:34:56;0.60;99.90
64685;DHT22;51109;47.414;18.954;2023-04-06T01:37:22;0.50;99.90
64685;DHT22;51109;47.414;18.954;2023-04-06T01:39:48;0.50;99.90
64685;DHT22;51109;47.414;18.954;2023-04-06T01:42:15;0.50;99.90
64685;DHT22;51109;47.414;18.954;2023-04-06T01:44:41;0.40;99.90
64685;DHT22;51109;47.414;18.954;2023-04-06T01:47:07;0.30;99.90
64685;DHT22;51109;47.414;18.954;2023-04-06T01:49:33;0.30;99.90
64685;DHT22;51109;47.414;18.954;2023-04-06T01:51:59;0.20;99.90
64685;DHT22;51109;47.414;18.954;2023-04-06T01:54:25;0.30;99.90
64685;DHT22;51109;47.414;18.954;2023-04-06T01:56:51;0.20;99.90
64685;DHT22;51109;47.414;18.954;2023-04-06T01:59:18;0.30;99.90
64685;DHT22;51109;47.414;18.954;2023-04-06T02:01:44;0.40;99.90
64685;DHT22;51109;47.414;18.954;2023-04-06T02:04:10;0.30;99.90
64685;DHT22;51109;47.414;18.954;2023-04-06T02:06:36;0.30;99.90
64685;DHT22;51109;47.414;18.954;2023-04-06T02:09:02;0.30;99.90
64685;DHT22;51109;47.414;18.954;2023-04-06T02:11:37;0.30;99.90
64685;DHT22;51109;47.414;18.954;2023-04-06T02:14:03;0.30;99.90
64685;DHT22;51109;47.414;18.954;2023-04-06T02:16:29;0.40;99.90
64685;DHT22;51109;47.414;18.954;2023-04-06T02:18:54;0.30;99.90
64685;DHT22;51109;47.414;18.954;2023-04-06T02:21:20;0.30;99.90
64685;DHT22;51109;47.414;18.954;2023-04-06T02:23:47;0.30;99.90
64685;DHT22;51109;47.414;18.954;2023-04-06T02:26:13;0.30;99.90
64685;DHT22;51109;47.414;18.954;2023-04-06T02:28:39;0.30;99.90
64685;DHT22;51109;47.414;18.954;2023-04-06T02:31:05;0.30;99.90
64685;DHT22;51109;47.414;18.954;2023-04-06T02:33:32;0.20;99.90
64685;DHT22;51109;47.414;18.954;2023-04-06T02:35:57;0.20;99.90
64685;DHT22;51109;47.414;18.954;2023-04-06T02:38:23;0.30;99.90
64685;DHT22;51109;47.414;18.954;2023-04-06T02:40:49;0.30;99.90
64685;DHT22;51109;47.414;18.954;2023-04-06T02:43:15;0.30;99.90
64685;DHT22;51109;47.414;18.954;2023-04-06T02:45:42;0.30;99.90
64685;DHT22;51109;47.414;18.954;2023-04-06T02:48:08;0.30;99.90
64685;DHT22;51109;47.414;18.954;2023-04-06T02:50:34;0.30;99.90
64685;DHT22;51109;47.414;18.954;2023-04-06T02:53:00;0.20;99.90
64685;DHT22;51109;47.414;18.954;2023-04-06T02:55:26;0.20;99.90
64685;DHT22;51109;47.414;18.954;2023-04-06T02:57:52;0.20;99.90
64685;DHT22;51109;47.414;18.954;2023-04-06T03:02:53;0.20;99.90
64685;DHT22;51109;47.414;18.954;2023-04-06T03:05:19;0.20;99.90
64685;DHT22;51109;47.414;18.954;2023-04-06T03:07:45;0.20;99.90
64685;DHT22;51109;47.414;18.954;2023-04-06T03:10:11;0.20;99.90
64685;DHT22;51109;47.414;18.954;2023-04-06T03:12:38;0.20;99.90
64685;DHT22;51109;47.414;18.954;2023-04-06T03:15:04;0.20;99.90
64685;DHT22;51109;47.414;18.954;2023-04-06T03:17:30;0.20;99.90
64685;DHT22;51109;47.414;18.954;2023-04-06T03:19:56;0.20;99.90
64685;DHT22;51109;47.414;18.954;2023-04-06T03:22:22;0.20;99.90
64685;DHT22;51109;47.414;18.954;2023-04-06T03:24:48;0.20;99.90
64685;DHT22;51109;47.414;18.954;2023-04-06T03:27:14;0.20;99.90
64685;DHT22;51109;47.414;18.954;2023-04-06T03:29:40;0.10;99.90
64685;DHT22;51109;47.414;18.954;2023-04-06T03:32:06;-0.10;99.90
64685;DHT22;51109;47.414;18.954;2023-04-06T03:34:32;0.00;99.90
64685;DHT22;51109;47.414;18.954;2023-04-06T03:36:58;-0.10;99.90
64685;DHT22;51109;47.414;18.954;2023-04-06T03:39:24;-0.20;99.90
64685;DHT22;51109;47.414;18.954;2023-04-06T03:41:50;-0.30;99.90
64685;DHT22;51109;47.414;18.954;2023-04-06T03:44:16;-0.20;99.90
64685;DHT22;51109;47.414;18.954;2023-04-06T03:46:42;-0.20;99.90
64685;DHT22;51109;47.414;18.954;2023-04-06T03:49:08;-0.10;99.90
64685;DHT22;51109;47.414;18.954;2023-04-06T03:51:34;-0.20;99.90
64685;DHT22;51109;47.414;18.954;2023-04-06T03:54:00;-0.20;99.90
64685;DHT22;51109;47.414;18.954;2023-04-06T03:56:26;-0.10;99.90
64685;DHT22;51109;47.414;18.954;2023-04-06T03:58:52;-0.10;99.90
64685;DHT22;51109;47.414;18.954;2023-04-06T04:01:18;-0.10;99.90
64685;DHT22;51109;47.414;18.954;2023-04-06T04:03:44;-0.10;99.90
64685;DHT22;51109;47.414;18.954;2023-04-06T04:06:10;-0.10;99.90
64685;DHT22;51109;47.414;18.954;2023-04-06T04:08:36;0.00;99.90
64685;DHT22;51109;47.414;18.954;2023-04-06T04:11:02;0.00;99.90
64685;DHT22;51109;47.414;18.954;2023-04-06T04:13:28;0.00;99.90
64685;DHT22;51109;47.414;18.954;2023-04-06T04:15:54;0.00;99.90
64685;DHT22;51109;47.414;18.954;2023-04-06T04:18:20;0.10;99.90
64685;DHT22;51109;47.414;18.954;2023-04-06T04:20:46;0.00;99.90
64685;DHT22;51109;47.414;18.954;2023-04-06T04:23:11;0.00;99.90
64685;DHT22;51109;47.414;18.954;2023-04-06T04:25:37;0.00;99.90
64685;DHT22;51109;47.414;18.954;2023-04-06T04:28:03;0.10;99.90
64685;DHT22;51109;47.414;18.954;2023-04-06T04:30:29;0.10;99.90
64685;DHT22;51109;47.414;18.954;2023-04-06T04:32:55;0.10;99.90
64685;DHT22;51109;47.414;18.954;2023-04-06T04:35:21;0.10;99.90
64685;DHT22;51109;47.414;18.954;2023-04-06T04:37:47;0.10;99.90
64685;DHT22;51109;47.414;18.954;2023-04-06T04:40:13;0.10;99.90
64685;DHT22;51109;47.414;18.954;2023-04-06T04:42:39;0.10;99.90
64685;DHT22;51109;47.414;18.954;2023-04-06T04:45:05;0.10;99.90
64685;DHT22;51109;47.414;18.954;2023-04-06T04:47:31;0.20;99.90
64685;DHT22;51109;47.414;18.954;2023-04-06T04:49:57;0.10;99.90
64685;DHT22;51109;47.414;18.954;2023-04-06T04:52:23;0.20;99.90
64685;DHT22;51109;47.414;18.954;2023-04-06T04:54:49;0.20;99.90
64685;DHT22;51109;47.414;18.954;2023-04-06T04:57:15;0.20;99.90
64685;DHT22;51109;47.414;18.954;2023-04-06T04:59:42;0.20;99.90
64685;DHT22;51109;47.414;18.954;2023-04-06T05:02:08;0.20;99.90
64685;DHT22;51109;47.414;18.954;2023-04-06T05:04:35;0.10;99.90
64685;DHT22;51109;47.414;18.954;2023-04-06T05:07:07;0.10;99.90
64685;DHT22;51109;47.414;18.954;2023-04-06T05:09:34;0.20;99.90
64685;DHT22;51109;47.414;18.954;2023-04-06T05:12:00;0.20;99.90
64685;DHT22;51109;47.414;18.954;2023-04-06T05:14:27;0.10;99.90
64685;DHT22;51109;47.414;18.954;2023-04-06T05:16:53;0.10;99.90
64685;DHT22;51109;47.414;18.954;2023-04-06T05:19:20;0.00;99.90
64685;DHT22;51109;47.414;18.954;2023-04-06T05:21:46;0.00;99.90
64685;DHT22;51109;47.414;18.954;2023-04-06T05:24:12;0.20;99.90
64685;DHT22;51109;47.414;18.954;2023-04-06T05:26:38;0.20;99.90
64685;DHT22;51109;47.414;18.954;2023-04-06T05:29:04;0.30;99.90
64685;DHT22;51109;47.414;18.954;2023-04-06T05:31:30;0.40;99.90
64685;DHT22;51109;47.414;18.954;2023-04-06T05:33:56;0.50;99.90
64685;DHT22;51109;47.414;18.954;2023-04-06T05:36:22;0.50;99.90
64685;DHT22;51109;47.414;18.954;2023-04-06T05:38:48;0.50;99.90
64685;DHT22;51109;47.414;18.954;2023-04-06T05:41:16;0.70;99.90
64685;DHT22;51109;47.414;18.954;2023-04-06T05:43:42;0.80;99.90
64685;DHT22;51109;47.414;18.954;2023-04-06T05:46:08;0.90;99.90
64685;DHT22;51109;47.414;18.954;2023-04-06T05:48:34;0.90;99.90
64685;DHT22;51109;47.414;18.954;2023-04-06T05:51:00;0.90;99.90
64685;DHT22;51109;47.414;18.954;2023-04-06T05:53:26;0.90;99.90
64685;DHT22;51109;47.414;18.954;2023-04-06T05:55:54;1.00;99.90
64685;DHT22;51109;47.414;18.954;2023-04-06T05:58:20;0.90;99.90
64685;DHT22;51109;47.414;18.954;2023-04-06T06:00:45;0.80;99.90
64685;DHT22;51109;47.414;18.954;2023-04-06T06:03:12;0.80;99.90
64685;DHT22;51109;47.414;18.954;2023-04-06T06:05:38;0.60;99.90
64685;DHT22;51109;47.414;18.954;2023-04-06T06:08:04;0.80;99.90
64685;DHT22;51109;47.414;18.954;2023-04-06T06:10:30;0.80;99.90
64685;DHT22;51109;47.414;18.954;2023-04-06T06:12:56;0.80;99.90
64685;DHT22;51109;47.414;18.954;2023-04-06T06:15:22;0.90;99.90
64685;DHT22;51109;47.414;18.954;2023-04-06T06:17:48;1.00;99.90
64685;DHT22;51109;47.414;18.954;2023-04-06T06:20:14;0.90;99.90
64685;DHT22;51109;47.414;18.954;2023-04-06T06:22:41;1.10;99.90
64685;DHT22;51109;47.414;18.954;2023-04-06T06:25:07;1.20;99.90
64685;DHT22;51109;47.414;18.954;2023-04-06T06:27:32;1.30;99.90
64685;DHT22;51109;47.414;18.954;2023-04-06T06:29:59;1.40;99.90
64685;DHT22;51109;47.414;18.954;2023-04-06T06:32:25;1.50;99.90
64685;DHT22;51109;47.414;18.954;2023-04-06T06:34:50;1.60;99.90
64685;DHT22;51109;47.414;18.954;2023-04-06T06:37:16;1.80;99.90
64685;DHT22;51109;47.414;18.954;2023-04-06T06:39:44;1.90;99.90
64685;DHT22;51109;47.414;18.954;2023-04-06T06:42:10;2.10;99.90
64685;DHT22;51109;47.414;18.954;2023-04-06T06:44:36;2.20;99.90
64685;DHT22;51109;47.414;18.954;2023-04-06T06:47:02;2.20;99.90
64685;DHT22;51109;47.414;18.954;2023-04-06T06:49:28;2.40;99.90
64685;DHT22;51109;47.414;18.954;2023-04-06T06:51:54;2.60;99.90
64685;DHT22;51109;47.414;18.954;2023-04-06T06:54:20;2.50;99.90
64685;DHT22;51109;47.414;18.954;2023-04-06T06:56:46;2.50;99.90
64685;DHT22;51109;47.414;18.954;2023-04-06T06:59:12;2.70;99.90
64685;DHT22;51109;47.414;18.954;2023-04-06T07:01:38;2.90;99.90
64685;DHT22;51109;47.414;18.954;2023-04-06T07:04:04;3.10;99.90
64685;DHT22;51109;47.414;18.954;2023-04-06T07:06:30;3.20;99.90
64685;DHT22;51109;47.414;18.954;2023-04-06T07:08:56;3.20;99.90
64685;DHT22;51109;47.414;18.954;2023-04-06T07:11:22;3.20;99.90
64685;DHT22;51109;47.414;18.954;2023-04-06T07:13:48;3.40;99.90
64685;DHT22;51109;47.414;18.954;2023-04-06T07:16:14;3.30;99.90
64685;DHT22;51109;47.414;18.954;2023-04-06T07:18:40;3.30;99.90
64685;DHT22;51109;47.414;18.954;2023-04-06T07:21:06;3.20;99.90
64685;DHT22;51109;47.414;18.954;2023-04-06T07:23:32;3.40;99.90
64685;DHT22;51109;47.414;18.954;2023-04-06T07:25:58;3.50;99.90
64685;DHT22;51109;47.414;18.954;2023-04-06T07:28:24;3.70;99.90
64685;DHT22;51109;47.414;18.954;2023-04-06T07:30:49;4.00;99.90
64685;DHT22;51109;47.414;18.954;2023-04-06T07:33:16;3.80;99.90
64685;DHT22;51109;47.414;18.954;2023-04-06T07:35:42;3.90;99.90
64685;DHT22;51109;47.414;18.954;2023-04-06T07:38:07;3.70;99.90
64685;DHT22;51109;47.414;18.954;2023-04-06T07:40:34;3.70;99.90
64685;DHT22;51109;47.414;18.954;2023-04-06T07:43:00;3.70;99.90
64685;DHT22;51109;47.414;18.954;2023-04-06T07:45:27;3.80;99.90
64685;DHT22;51109;47.414;18.954;2023-04-06T07:47:53;3.90;99.90
64685;DHT22;51109;47.414;18.954;2023-04-06T07:50:19;4.10;99.90
64685;DHT22;51109;47.414;18.954;2023-04-06T07:52:45;4.30;99.90
64685;DHT22;51109;47.414;18.954;2023-04-06T07:55:11;4.20;99.90
64685;DHT22;51109;47.414;18.954;2023-04-06T07:57:37;4.20;99.90
64685;DHT22;51109;47.414;18.954;2023-04-06T08:00:05;4.30;99.90
64685;DHT22;51109;47.414;18.954;2023-04-06T08:02:34;4.40;99.90
64685;DHT22;51109;47.414;18.954;2023-04-06T08:05:00;4.50;99.90
64685;DHT22;51109;47.414;18.954;2023-04-06T08:07:26;4.50;99.90
64685;DHT22;51109;47.414;18.954;2023-04-06T08:09:52;4.50;99.90
64685;DHT22;51109;47.414;18.954;2023-04-06T08:12:18;4.70;99.90
64685;DHT22;51109;47.414;18.954;2023-04-06T08:14:44;4.80;99.90
64685;DHT22;51109;47.414;18.954;2023-04-06T08:17:10;4.80;99.90
64685;DHT22;51109;47.414;18.954;2023-04-06T08:19:38;4.80;99.90
64685;DHT22;51109;47.414;18.954;2023-04-06T08:22:03;4.90;99.90
64685;DHT22;51109;47.414;18.954;2023-04-06T08:24:29;5.00;99.90
64685;DHT22;51109;47.414;18.954;2023-04-06T08:26:57;5.20;99.90
64685;DHT22;51109;47.414;18.954;2023-04-06T08:29:23;5.10;99.90
64685;DHT22;51109;47.414;18.954;2023-04-06T08:31:49;5.10;99.90
64685;DHT22;51109;47.414;18.954;2023-04-06T08:34:15;5.20;99.90
64685;DHT22;51109;47.414;18.954;2023-04-06T08:36:41;5.20;99.90
64685;DHT22;51109;47.414;18.954;2023-04-06T08:39:07;5.20;99.90
64685;DHT22;51109;47.414;18.954;2023-04-06T08:41:44;5.20;99.90
64685;DHT22;51109;47.414;18.954;2023-04-06T08:44:11;5.40;99.90
64685;DHT22;51109;47.414;18.954;2023-04-06T08:46:37;5.30;99.90
64685;DHT22;51109;47.414;18.954;2023-04-06T08:49:03;5.50;99.90
64685;DHT22;51109;47.414;18.954;2023-04-06T08:51:32;5.70;99.90
64685;DHT22;51109;47.414;18.954;2023-04-06T08:53:59;5.60;99.90
64685;DHT22;51109;47.414;18.954;2023-04-06T08:56:27;5.70;99.90
64685;DHT22;51109;47.414;18.954;2023-04-06T08:58:54;5.90;99.90
64685;DHT22;51109;47.414;18.954;2023-04-06T09:01:25;6.00;99.90
64685;DHT22;51109;47.414;18.954;2023-04-06T09:03:56;6.10;99.90
64685;DHT22;51109;47.414;18.954;2023-04-06T09:06:22;5.90;99.90
64685;DHT22;51109;47.414;18.954;2023-04-06T09:08:48;5.90;99.90
64685;DHT22;51109;47.414;18.954;2023-04-06T09:11:14;6.10;99.90
64685;DHT22;51109;47.414;18.954;2023-04-06T09:13:49;6.00;99.90
64685;DHT22;51109;47.414;18.954;2023-04-06T09:16:16;6.40;99.90
64685;DHT22;51109;47.414;18.954;2023-04-06T09:18:42;6.40;99.90
64685;DHT22;51109;47.414;18.954;2023-04-06T09:21:09;6.50;99.90
64685;DHT22;51109;47.414;18.954;2023-04-06T09:23:36;6.30;99.90
64685;DHT22;51109;47.414;18.954;2023-04-06T09:26:13;6.40;99.90
64685;DHT22;51109;47.414;18.954;2023-04-06T09:28:51;6.60;99.90
64685;DHT22;51109;47.414;18.954;2023-04-06T09:31:25;6.50;99.90
64685;DHT22;51109;47.414;18.954;2023-04-06T09:33:52;6.50;99.90
64685;DHT22;51109;47.414;18.954;2023-04-06T09:36:19;6.50;99.90
64685;DHT22;51109;47.414;18.954;2023-04-06T09:38:56;6.60;99.90
64685;DHT22;51109;47.414;18.954;2023-04-06T09:41:29;6.90;99.90
64685;DHT22;51109;47.414;18.954;2023-04-06T09:44:09;6.80;99.90
64685;DHT22;51109;47.414;18.954;2023-04-06T09:46:37;6.70;99.90
64685;DHT22;51109;47.414;18.954;2023-04-06T09:49:05;6.70;99.90
64685;DHT22;51109;47.414;18.954;2023-04-06T09:51:37;6.60;99.90
64685;DHT22;51109;47.414;18.954;2023-04-06T09:54:04;6.80;99.90
64685;DHT22;51109;47.414;18.954;2023-04-06T09:56:37;6.90;99.90
64685;DHT22;51109;47.414;18.954;2023-04-06T09:59:18;7.10;99.90
64685;DHT22;51109;47.414;18.954;2023-04-06T10:01:48;7.30;99.90
64685;DHT22;51109;47.414;18.954;2023-04-06T10:06:55;7.30;99.90
64685;DHT22;51109;47.414;18.954;2023-04-06T10:09:25;7.50;99.90
64685;DHT22;51109;47.414;18.954;2023-04-06T10:11:54;7.70;99.40
64685;DHT22;51109;47.414;18.954;2023-04-06T10:14:20;7.70;98.70
64685;DHT22;51109;47.414;18.954;2023-04-06T10:16:48;7.70;99.50
64685;DHT22;51109;47.414;18.954;2023-04-06T10:19:25;8.00;99.50
64685;DHT22;51109;47.414;18.954;2023-04-06T10:21:55;7.90;99.60
64685;DHT22;51109;47.414;18.954;2023-04-06T10:24:24;7.80;97.30
64685;DHT22;51109;47.414;18.954;2023-04-06T10:27:03;7.70;98.10
64685;DHT22;51109;47.414;18.954;2023-04-06T10:29:44;8.10;97.30
64685;DHT22;51109;47.414;18.954;2023-04-06T10:32:11;8.00;99.10
64685;DHT22;51109;47.414;18.954;2023-04-06T10:34:37;8.10;99.00
64685;DHT22;51109;47.414;18.954;2023-04-06T10:37:15;8.30;98.80
64685;DHT22;51109;47.414;18.954;2023-04-06T10:39:52;8.40;97.90
64685;DHT22;51109;47.414;18.954;2023-04-06T10:42:24;8.60;98.50
64685;DHT22;51109;47.414;18.954;2023-04-06T10:44:51;8.50;95.90
64685;DHT22;51109;47.414;18.954;2023-04-06T10:47:18;8.20;95.70
64685;DHT22;51109;47.414;18.954;2023-04-06T10:49:44;8.20;96.10
64685;DHT22;51109;47.414;18.954;2023-04-06T10:52:10;8.10;96.30
64685;DHT22;51109;47.414;18.954;2023-04-06T10:54:41;8.40;97.20
64685;DHT22;51109;47.414;18.954;2023-04-06T10:57:08;8.40;96.00
64685;DHT22;51109;47.414;18.954;2023-04-06T10:59:34;8.50;96.90
64685;DHT22;51109;47.414;18.954;2023-04-06T11:02:00;8.50;96.80
64685;DHT22;51109;47.414;18.954;2023-04-06T11:04:26;8.60;97.00
64685;DHT22;51109;47.414;18.954;2023-04-06T11:06:52;8.80;96.30
64685;DHT22;51109;47.414;18.954;2023-04-06T11:09:29;8.70;95.70
64685;DHT22;51109;47.414;18.954;2023-04-06T11:11:57;8.40;95.10
64685;DHT22;51109;47.414;18.954;2023-04-06T11:14:23;8.50;94.80
64685;DHT22;51109;47.414;18.954;2023-04-06T11:16:49;8.50;96.10
64685;DHT22;51109;47.414;18.954;2023-04-06T11:19:18;8.60;95.70
64685;DHT22;51109;47.414;18.954;2023-04-06T11:21:46;8.60;95.00
64685;DHT22;51109;47.414;18.954;2023-04-06T11:24:23;8.80;95.90
64685;DHT22;51109;47.414;18.954;2023-04-06T11:29:22;9.10;95.60
64685;DHT22;51109;47.414;18.954;2023-04-06T11:31:50;8.90;95.60
64685;DHT22;51109;47.414;18.954;2023-04-06T11:36:44;9.00;96.10
64685;DHT22;51109;47.414;18.954;2023-04-06T11:39:11;9.10;97.20
64685;DHT22;51109;47.414;18.954;2023-04-06T11:41:37;9.20;97.30
64685;DHT22;51109;47.414;18.954;2023-04-06T11:44:03;9.10;96.80
64685;DHT22;51109;47.414;18.954;2023-04-06T11:46:31;8.90;97.30
64685;DHT22;51109;47.414;18.954;2023-04-06T11:49:01;9.20;99.60
64685;DHT22;51109;47.414;18.954;2023-04-06T11:51:27;9.00;96.80
64685;DHT22;51109;47.414;18.954;2023-04-06T11:53:54;9.40;98.00
64685;DHT22;51109;47.414;18.954;2023-04-06T11:56:28;9.50;95.10
64685;DHT22;51109;47.414;18.954;2023-04-06T11:58:55;9.40;95.70
64685;DHT22;51109;47.414;18.954;2023-04-06T12:01:22;9.20;93.90
64685;DHT22;51109;47.414;18.954;2023-04-06T12:03:50;9.10;94.50
64685;DHT22;51109;47.414;18.954;2023-04-06T12:06:19;9.10;95.70
64685;DHT22;51109;47.414;18.954;2023-04-06T12:08:45;8.90;94.30
64685;DHT22;51109;47.414;18.954;2023-04-06T12:11:11;9.00;95.30
64685;DHT22;51109;47.414;18.954;2023-04-06T12:13:37;8.70;95.10
64685;DHT22;51109;47.414;18.954;2023-04-06T12:16:04;8.70;95.40
64685;DHT22;51109;47.414;18.954;2023-04-06T12:18:30;8.90;96.70
64685;DHT22;51109;47.414;18.954;2023-04-06T12:20:56;8.90;95.50
64685;DHT22;51109;47.414;18.954;2023-04-06T12:23:22;8.70;96.60
64685;DHT22;51109;47.414;18.954;2023-04-06T12:25:48;8.70;96.00
64685;DHT22;51109;47.414;18.954;2023-04-06T12:28:14;8.60;95.60
64685;DHT22;51109;47.414;18.954;2023-04-06T12:30:41;8.50;95.80
64685;DHT22;51109;47.414;18.954;2023-04-06T12:33:07;8.50;95.00
64685;DHT22;51109;47.414;18.954;2023-04-06T12:35:36;8.50;95.10
64685;DHT22;51109;47.414;18.954;2023-04-06T12:38:02;8.50;95.20
64685;DHT22;51109;47.414;18.954;2023-04-06T12:40:28;8.50;96.00
64685;DHT22;51109;47.414;18.954;2023-04-06T12:42:54;8.50;94.50
64685;DHT22;51109;47.414;18.954;2023-04-06T12:45:20;8.50;95.10
64685;DHT22;51109;47.414;18.954;2023-04-06T12:47:47;8.50;95.90
64685;DHT22;51109;47.414;18.954;2023-04-06T12:50:12;8.60;95.80
64685;DHT22;51109;47.414;18.954;2023-04-06T12:52:39;8.60;94.60
64685;DHT22;51109;47.414;18.954;2023-04-06T12:55:05;8.50;95.20
64685;DHT22;51109;47.414;18.954;2023-04-06T12:57:35;8.60;95.80
64685;DHT22;51109;47.414;18.954;2023-04-06T13:00:03;8.80;96.50
64685;DHT22;51109;47.414;18.954;2023-04-06T13:02:30;8.90;95.60
64685;DHT22;51109;47.414;18.954;2023-04-06T13:04:56;8.80;95.60
64685;DHT22;51109;47.414;18.954;2023-04-06T13:07:22;8.70;94.60
64685;DHT22;51109;47.414;18.954;2023-04-06T13:09:49;8.50;95.20
64685;DHT22;51109;47.414;18.954;2023-04-06T13:12:18;8.50;95.90
64685;DHT22;51109;47.414;18.954;2023-04-06T13:14:43;8.40;95.80
64685;DHT22;51109;47.414;18.954;2023-04-06T13:17:10;8.40;94.60
64685;DHT22;51109;47.414;18.954;2023-04-06T13:19:36;8.30;94.50
64685;DHT22;51109;47.414;18.954;2023-04-06T13:22:02;8.30;94.10
64685;DHT22;51109;47.414;18.954;2023-04-06T13:24:28;8.30;94.00
64685;DHT22;51109;47.414;18.954;2023-04-06T13:26:54;8.30;94.70
64685;DHT22;51109;47.414;18.954;2023-04-06T13:29:20;8.40;95.80
64685;DHT22;51109;47.414;18.954;2023-04-06T13:31:46;8.50;95.20
64685;DHT22;51109;47.414;18.954;2023-04-06T13:34:12;8.40;95.20
64685;DHT22;51109;47.414;18.954;2023-04-06T13:36:38;8.40;95.80
64685;DHT22;51109;47.414;18.954;2023-04-06T13:39:06;8.50;95.90
64685;DHT22;51109;47.414;18.954;2023-04-06T13:41:32;8.50;95.20
64685;DHT22;51109;47.414;18.954;2023-04-06T13:43:58;8.20;94.40
64685;DHT22;51109;47.414;18.954;2023-04-06T13:46:24;8.10;95.30
64685;DHT22;51109;47.414;18.954;2023-04-06T13:48:50;8.00;96.10
64685;DHT22;51109;47.414;18.954;2023-04-06T13:51:16;7.80;96.10
64685;DHT22;51109;47.414;18.954;2023-04-06T13:53:42;7.80;97.40
64685;DHT22;51109;47.414;18.954;2023-04-06T13:56:08;7.80;96.50
64685;DHT22;51109;47.414;18.954;2023-04-06T13:58:35;7.80;96.90
64685;DHT22;51109;47.414;18.954;2023-04-06T14:01:08;7.80;96.70
64685;DHT22;51109;47.414;18.954;2023-04-06T14:03:35;8.00;97.90
64685;DHT22;51109;47.414;18.954;2023-04-06T14:06:09;8.00;97.30
64685;DHT22;51109;47.414;18.954;2023-04-06T14:08:35;7.90;97.30
64685;DHT22;51109;47.414;18.954;2023-04-06T14:11:01;8.00;99.40
64685;DHT22;51109;47.414;18.954;2023-04-06T14:13:27;7.90;98.20
64685;DHT22;51109;47.414;18.954;2023-04-06T14:15:54;7.80;98.50
64685;DHT22;51109;47.414;18.954;2023-04-06T14:18:21;7.80;97.20
64685;DHT22;51109;47.414;18.954;2023-04-06T14:20:55;7.80;97.90
64685;DHT22;51109;47.414;18.954;2023-04-06T14:23:22;7.90;98.00
64685;DHT22;51109;47.414;18.954;2023-04-06T14:25:47;7.90;98.30
64685;DHT22;51109;47.414;18.954;2023-04-06T14:28:14;8.00;98.20
64685;DHT22;51109;47.414;18.954;2023-04-06T14:30:40;7.90;97.40
64685;DHT22;51109;47.414;18.954;2023-04-06T14:33:06;7.90;97.60
64685;DHT22;51109;47.414;18.954;2023-04-06T14:35:32;8.00;98.60
64685;DHT22;51109;47.414;18.954;2023-04-06T14:37:58;8.00;98.80
64685;DHT22;51109;47.414;18.954;2023-04-06T14:40:24;8.00;98.70
64685;DHT22;51109;47.414;18.954;2023-04-06T14:42:50;7.90;98.20
64685;DHT22;51109;47.414;18.954;2023-04-06T14:45:17;7.80;98.50
64685;DHT22;51109;47.414;18.954;2023-04-06T14:47:45;7.60;99.00
64685;DHT22;51109;47.414;18.954;2023-04-06T14:50:11;7.60;99.90
64685;DHT22;51109;47.414;18.954;2023-04-06T14:52:37;7.60;99.90
64685;DHT22;51109;47.414;18.954;2023-04-06T14:55:03;7.50;99.90
64685;DHT22;51109;47.414;18.954;2023-04-06T14:57:30;7.30;99.90
64685;DHT22;51109;47.414;18.954;2023-04-06T14:59:58;7.20;99.90
64685;DHT22;51109;47.414;18.954;2023-04-06T15:02:24;7.10;99.90
64685;DHT22;51109;47.414;18.954;2023-04-06T15:04:50;7.00;99.90
64685;DHT22;51109;47.414;18.954;2023-04-06T15:07:16;7.10;99.90
64685;DHT22;51109;47.414;18.954;2023-04-06T15:09:43;7.10;99.90
64685;DHT22;51109;47.414;18.954;2023-04-06T15:12:08;7.20;99.90
64685;DHT22;51109;47.414;18.954;2023-04-06T15:14:34;7.10;99.90
64685;DHT22;51109;47.414;18.954;2023-04-06T15:17:00;7.00;99.90
64685;DHT22;51109;47.414;18.954;2023-04-06T15:19:26;6.60;99.90
64685;DHT22;51109;47.414;18.954;2023-04-06T15:21:53;6.40;99.90
64685;DHT22;51109;47.414;18.954;2023-04-06T15:24:19;6.40;99.90
64685;DHT22;51109;47.414;18.954;2023-04-06T15:26:44;6.30;99.90
64685;DHT22;51109;47.414;18.954;2023-04-06T15:29:11;6.30;99.90
64685;DHT22;51109;47.414;18.954;2023-04-06T15:31:37;6.30;99.90
64685;DHT22;51109;47.414;18.954;2023-04-06T15:34:05;6.30;99.90
64685;DHT22;51109;47.414;18.954;2023-04-06T15:36:33;6.30;99.90
64685;DHT22;51109;47.414;18.954;2023-04-06T15:39:00;6.40;99.90